sensor_id;sensor_type;location;lat;lon;timestamp;temperature;humidity
1355;DHT22;671;48.972;9.276;2023-05-10T00:02:11;15.70;99.90
1355;DHT22;671;48.972;9.276;2023-05-10T00:04:38;15.70;99.90
1355;DHT22;671;48.972;9.276;2023-05-10T00:07:04;15.70;99.90
1355;DHT22;671;48.972;9.276;2023-05-10T00:09:31;15.60;99.90
1355;DHT22;671;48.972;9.276;2023-05-10T00:11:57;15.60;99.90
1355;DHT22;671;48.972;9.276;2023-05-10T00:14:24;15.60;99.90
1355;DHT22;671;48.972;9.276;2023-05-10T00:16:51;15.60;99.90
1355;DHT22;671;48.972;9.276;2023-05-10T00:19:17;15.60;99.90
1355;DHT22;671;48.972;9.276;2023-05-10T00:21:44;15.50;99.90
1355;DHT22;671;48.972;9.276;2023-05-10T00:24:10;15.50;99.90
1355;DHT22;671;48.972;9.276;2023-05-10T00:26:37;15.40;99.90
1355;DHT22;671;48.972;9.276;2023-05-10T00:29:03;15.40;99.90
1355;DHT22;671;48.972;9.276;2023-05-10T00:31:30;15.30;99.90
1355;DHT22;671;48.972;9.276;2023-05-10T00:33:56;15.30;99.90
1355;DHT22;671;48.972;9.276;2023-05-10T00:36:22;15.30;99.90
1355;DHT22;671;48.972;9.276;2023-05-10T00:38:49;15.30;99.90
1355;DHT22;671;48.972;9.276;2023-05-10T00:41:16;15.20;99.90
1355;DHT22;671;48.972;9.276;2023-05-10T00:43:42;15.20;99.90
1355;DHT22;671;48.972;9.276;2023-05-10T00:46:09;15.20;99.90
1355;DHT22;671;48.972;9.276;2023-05-10T00:48:35;15.10;99.90
1355;DHT22;671;48.972;9.276;2023-05-10T00:51:02;15.10;99.90
1355;DHT22;671;48.972;9.276;2023-05-10T00:53:31;15.10;99.90
1355;DHT22;671;48.972;9.276;2023-05-10T00:55:59;15.10;99.90
1355;DHT22;671;48.972;9.276;2023-05-10T00:58:25;15.10;99.90
1355;DHT22;671;48.972;9.276;2023-05-10T01:00:55;15.10;99.90
1355;DHT22;671;48.972;9.276;2023-05-10T01:03:23;15.00;99.90
1355;DHT22;671;48.972;9.276;2023-05-10T01:05:49;15.00;99.90
1355;DHT22;671;48.972;9.276;2023-05-10T01:08:16;15.00;99.90
1355;DHT22;671;48.972;9.276;2023-05-10T01:10:43;14.90;99.90
1355;DHT22;671;48.972;9.276;2023-05-10T01:13:10;14.90;99.90
1355;DHT22;671;48.972;9.276;2023-05-10T01:15:37;14.80;99.90
1355;DHT22;671;48.972;9.276;2023-05-10T01:18:04;14.80;99.90
1355;DHT22;671;48.972;9.276;2023-05-10T01:20:38;14.80;99.90
1355;DHT22;671;48.972;9.276;2023-05-10T01:23:42;14.80;99.90
1355;DHT22;671;48.972;9.276;2023-05-10T01:29:22;14.70;99.90
1355;DHT22;671;48.972;9.276;2023-05-10T01:34:54;14.60;99.90
1355;DHT22;671;48.972;9.276;2023-05-10T01:37:25;14.50;99.90
1355;DHT22;671;48.972;9.276;2023-05-10T01:40:03;14.50;99.90
1355;DHT22;671;48.972;9.276;2023-05-10T01:42:47;14.50;99.90
1355;DHT22;671;48.972;9.276;2023-05-10T01:45:27;14.50;99.90
1355;DHT22;671;48.972;9.276;2023-05-10T01:48:11;14.50;99.90
1355;DHT22;671;48.972;9.276;2023-05-10T01:50:41;14.50;99.90
1355;DHT22;671;48.972;9.276;2023-05-10T01:53:10;14.50;99.90
1355;DHT22;671;48.972;9.276;2023-05-10T01:55:48;14.50;99.90
1355;DHT22;671;48.972;9.276;2023-05-10T01:58:21;14.50;99.90
1355;DHT22;671;48.972;9.276;2023-05-10T02:00:50;14.40;99.90
1355;DHT22;671;48.972;9.276;2023-05-10T02:03:21;14.40;99.90
1355;DHT22;671;48.972;9.276;2023-05-10T02:05:50;14.30;99.90
1355;DHT22;671;48.972;9.276;2023-05-10T02:08:19;14.30;99.90
1355;DHT22;671;48.972;9.276;2023-05-10T02:10:49;14.30;99.90
1355;DHT22;671;48.972;9.276;2023-05-10T02:13:17;14.30;99.90
1355;DHT22;671;48.972;9.276;2023-05-10T02:15:47;14.30;99.90
1355;DHT22;671;48.972;9.276;2023-05-10T02:18:15;14.40;99.90
1355;DHT22;671;48.972;9.276;2023-05-10T02:20:44;14.40;99.90
1355;DHT22;671;48.972;9.276;2023-05-10T02:23:12;14.40;99.90
1355;DHT22;671;48.972;9.276;2023-05-10T02:25:40;14.40;99.90
1355;DHT22;671;48.972;9.276;2023-05-10T02:28:08;14.40;99.90
1355;DHT22;671;48.972;9.276;2023-05-10T02:30:36;14.40;99.90
1355;DHT22;671;48.972;9.276;2023-05-10T02:33:04;14.40;99.90
1355;DHT22;671;48.972;9.276;2023-05-10T02:35:32;14.40;99.90
1355;DHT22;671;48.972;9.276;2023-05-10T02:38:00;14.40;99.90
1355;DHT22;671;48.972;9.276;2023-05-10T02:40:27;14.30;99.90
1355;DHT22;671;48.972;9.276;2023-05-10T02:42:56;14.30;99.90
1355;DHT22;671;48.972;9.276;2023-05-10T02:45:25;14.30;99.90
1355;DHT22;671;48.972;9.276;2023-05-10T02:47:54;14.20;99.90
1355;DHT22;671;48.972;9.276;2023-05-10T02:50:22;14.20;99.90
1355;DHT22;671;48.972;9.276;2023-05-10T02:52:51;14.20;99.90
1355;DHT22;671;48.972;9.276;2023-05-10T02:55:21;14.30;99.90
1355;DHT22;671;48.972;9.276;2023-05-10T02:57:56;14.30;99.90
1355;DHT22;671;48.972;9.276;2023-05-10T03:00:25;14.40;99.90
1355;DHT22;671;48.972;9.276;2023-05-10T03:02:52;14.40;99.90
1355;DHT22;671;48.972;9.276;2023-05-10T03:05:19;14.40;99.90
1355;DHT22;671;48.972;9.276;2023-05-10T03:07:46;14.50;99.90
1355;DHT22;671;48.972;9.276;2023-05-10T03:10:12;14.50;99.90
1355;DHT22;671;48.972;9.276;2023-05-10T03:18:12;14.60;99.90
1355;DHT22;671;48.972;9.276;2023-05-10T03:20:42;14.60;99.90
1355;DHT22;671;48.972;9.276;2023-05-10T03:23:26;14.60;99.90
1355;DHT22;671;48.972;9.276;2023-05-10T03:25:53;14.70;99.90
1355;DHT22;671;48.972;9.276;2023-05-10T03:28:21;14.70;99.90
1355;DHT22;671;48.972;9.276;2023-05-10T03:30:48;14.60;99.90
1355;DHT22;671;48.972;9.276;2023-05-10T03:33:15;14.60;99.90
1355;DHT22;671;48.972;9.276;2023-05-10T03:35:42;14.60;99.90
1355;DHT22;671;48.972;9.276;2023-05-10T03:38:10;14.60;99.90
1355;DHT22;671;48.972;9.276;2023-05-10T03:40:37;14.60;99.90
1355;DHT22;671;48.972;9.276;2023-05-10T03:43:03;14.70;99.90
1355;DHT22;671;48.972;9.276;2023-05-10T03:45:30;14.70;99.90
1355;DHT22;671;48.972;9.276;2023-05-10T03:47:58;14.70;99.90
1355;DHT22;671;48.972;9.276;2023-05-10T03:50:24;14.80;99.90
1355;DHT22;671;48.972;9.276;2023-05-10T03:52:51;14.70;99.90
1355;DHT22;671;48.972;9.276;2023-05-10T03:55:17;14.70;99.90
1355;DHT22;671;48.972;9.276;2023-05-10T03:57:44;14.80;99.90
1355;DHT22;671;48.972;9.276;2023-05-10T04:00:11;14.70;99.90
1355;DHT22;671;48.972;9.276;2023-05-10T04:02:37;14.80;99.90
1355;DHT22;671;48.972;9.276;2023-05-10T04:05:04;14.80;99.90
1355;DHT22;671;48.972;9.276;2023-05-10T04:07:32;14.80;99.90
1355;DHT22;671;48.972;9.276;2023-05-10T04:09:58;14.80;99.90
1355;DHT22;671;48.972;9.276;2023-05-10T04:12:25;14.80;99.90
1355;DHT22;671;48.972;9.276;2023-05-10T04:14:51;14.80;99.90
1355;DHT22;671;48.972;9.276;2023-05-10T04:17:18;14.80;99.90
1355;DHT22;671;48.972;9.276;2023-05-10T04:19:44;14.80;99.90
1355;DHT22;671;48.972;9.276;2023-05-10T04:22:11;14.90;99.90
1355;DHT22;671;48.972;9.276;2023-05-10T04:24:37;14.90;99.90
1355;DHT22;671;48.972;9.276;2023-05-10T04:27:03;14.90;99.90
1355;DHT22;671;48.972;9.276;2023-05-10T04:29:30;14.90;99.90
1355;DHT22;671;48.972;9.276;2023-05-10T04:31:57;14.90;99.90
1355;DHT22;671;48.972;9.276;2023-05-10T04:34:24;14.90;99.90
1355;DHT22;671;48.972;9.276;2023-05-10T04:36:50;14.90;99.90
1355;DHT22;671;48.972;9.276;2023-05-10T04:39:17;15.00;99.90
1355;DHT22;671;48.972;9.276;2023-05-10T04:41:43;15.00;99.90
1355;DHT22;671;48.972;9.276;2023-05-10T04:44:10;15.00;99.90
1355;DHT22;671;48.972;9.276;2023-05-10T04:46:36;15.00;99.90
1355;DHT22;671;48.972;9.276;2023-05-10T04:49:03;15.00;99.90
1355;DHT22;671;48.972;9.276;2023-05-10T04:51:29;15.00;99.90
1355;DHT22;671;48.972;9.276;2023-05-10T04:53:56;15.00;99.90
1355;DHT22;671;48.972;9.276;2023-05-10T04:56:23;15.00;99.90
1355;DHT22;671;48.972;9.276;2023-05-10T04:58:49;15.00;99.90
1355;DHT22;671;48.972;9.276;2023-05-10T05:01:16;15.00;99.90
1355;DHT22;671;48.972;9.276;2023-05-10T05:03:42;15.00;99.90
1355;DHT22;671;48.972;9.276;2023-05-10T05:06:09;15.00;99.90
1355;DHT22;671;48.972;9.276;2023-05-10T05:08:35;15.00;99.90
1355;DHT22;671;48.972;9.276;2023-05-10T05:11:02;15.00;99.90
1355;DHT22;671;48.972;9.276;2023-05-10T05:13:29;15.00;99.90
1355;DHT22;671;48.972;9.276;2023-05-10T05:15:55;15.00;99.90
1355;DHT22;671;48.972;9.276;2023-05-10T05:18:22;15.00;99.90
1355;DHT22;671;48.972;9.276;2023-05-10T05:20:48;15.00;99.90
1355;DHT22;671;48.972;9.276;2023-05-10T05:23:15;15.00;99.90
1355;DHT22;671;48.972;9.276;2023-05-10T05:25:41;15.20;99.90
1355;DHT22;671;48.972;9.276;2023-05-10T05:28:08;15.20;99.90
1355;DHT22;671;48.972;9.276;2023-05-10T05:30:34;15.20;99.90
1355;DHT22;671;48.972;9.276;2023-05-10T05:33:01;15.50;99.90
1355;DHT22;671;48.972;9.276;2023-05-10T05:35:28;15.70;99.90
1355;DHT22;671;48.972;9.276;2023-05-10T05:37:54;15.90;99.90
1355;DHT22;671;48.972;9.276;2023-05-10T05:40:22;15.90;99.90
1355;DHT22;671;48.972;9.276;2023-05-10T05:42:48;15.90;99.90
1355;DHT22;671;48.972;9.276;2023-05-10T05:45:15;15.90;99.90
1355;DHT22;671;48.972;9.276;2023-05-10T05:47:41;15.90;99.90
1355;DHT22;671;48.972;9.276;2023-05-10T05:50:08;15.90;99.90
1355;DHT22;671;48.972;9.276;2023-05-10T05:52:35;15.90;99.90
1355;DHT22;671;48.972;9.276;2023-05-10T05:55:02;15.90;99.90
1355;DHT22;671;48.972;9.276;2023-05-10T05:57:29;16.00;99.90
1355;DHT22;671;48.972;9.276;2023-05-10T05:59:55;16.00;99.90
1355;DHT22;671;48.972;9.276;2023-05-10T06:02:22;16.10;99.90
1355;DHT22;671;48.972;9.276;2023-05-10T06:04:48;16.10;99.90
1355;DHT22;671;48.972;9.276;2023-05-10T06:07:15;16.10;99.90
1355;DHT22;671;48.972;9.276;2023-05-10T06:09:41;16.20;99.90
1355;DHT22;671;48.972;9.276;2023-05-10T06:12:08;16.30;99.90
1355;DHT22;671;48.972;9.276;2023-05-10T06:14:34;16.40;99.90
1355;DHT22;671;48.972;9.276;2023-05-10T06:17:00;16.50;99.90
1355;DHT22;671;48.972;9.276;2023-05-10T06:19:30;16.50;99.90
1355;DHT22;671;48.972;9.276;2023-05-10T06:21:56;16.40;99.90
1355;DHT22;671;48.972;9.276;2023-05-10T06:24:23;16.40;99.90
1355;DHT22;671;48.972;9.276;2023-05-10T06:26:49;16.40;99.90
1355;DHT22;671;48.972;9.276;2023-05-10T06:29:16;16.40;99.90
1355;DHT22;671;48.972;9.276;2023-05-10T06:31:43;16.40;99.90
1355;DHT22;671;48.972;9.276;2023-05-10T06:34:10;16.40;99.90
1355;DHT22;671;48.972;9.276;2023-05-10T06:36:37;16.40;99.90
1355;DHT22;671;48.972;9.276;2023-05-10T06:39:04;16.40;99.90
1355;DHT22;671;48.972;9.276;2023-05-10T06:41:30;16.50;99.90
1355;DHT22;671;48.972;9.276;2023-05-10T06:43:57;16.50;99.90
1355;DHT22;671;48.972;9.276;2023-05-10T06:46:23;16.50;99.90
1355;DHT22;671;48.972;9.276;2023-05-10T06:48:50;16.50;99.90
1355;DHT22;671;48.972;9.276;2023-05-10T06:51:16;16.50;99.90
1355;DHT22;671;48.972;9.276;2023-05-10T06:53:43;16.50;99.90
1355;DHT22;671;48.972;9.276;2023-05-10T06:56:10;16.50;99.90
1355;DHT22;671;48.972;9.276;2023-05-10T06:58:36;16.50;99.90
1355;DHT22;671;48.972;9.276;2023-05-10T07:01:04;16.40;99.90
1355;DHT22;671;48.972;9.276;2023-05-10T07:03:31;16.40;99.90
1355;DHT22;671;48.972;9.276;2023-05-10T07:06:02;16.50;99.90
1355;DHT22;671;48.972;9.276;2023-05-10T07:08:36;16.50;99.90
1355;DHT22;671;48.972;9.276;2023-05-10T07:11:03;16.50;99.90
1355;DHT22;671;48.972;9.276;2023-05-10T07:13:33;16.50;99.90
1355;DHT22;671;48.972;9.276;2023-05-10T07:16:00;16.60;99.90
1355;DHT22;671;48.972;9.276;2023-05-10T07:18:28;16.60;99.90
1355;DHT22;671;48.972;9.276;2023-05-10T07:20:55;16.60;99.90
1355;DHT22;671;48.972;9.276;2023-05-10T07:23:22;16.60;99.90
1355;DHT22;671;48.972;9.276;2023-05-10T07:25:50;16.70;99.90
1355;DHT22;671;48.972;9.276;2023-05-10T07:28:18;16.70;99.90
1355;DHT22;671;48.972;9.276;2023-05-10T07:30:45;16.70;99.90
1355;DHT22;671;48.972;9.276;2023-05-10T07:33:13;16.70;99.90
1355;DHT22;671;48.972;9.276;2023-05-10T07:35:40;16.80;99.90
1355;DHT22;671;48.972;9.276;2023-05-10T07:38:06;16.80;99.90
1355;DHT22;671;48.972;9.276;2023-05-10T07:40:32;16.90;99.90
1355;DHT22;671;48.972;9.276;2023-05-10T07:42:58;16.90;99.90
1355;DHT22;671;48.972;9.276;2023-05-10T07:45:25;16.90;99.90
1355;DHT22;671;48.972;9.276;2023-05-10T07:47:51;17.00;99.90
1355;DHT22;671;48.972;9.276;2023-05-10T07:50:17;17.10;99.90
1355;DHT22;671;48.972;9.276;2023-05-10T07:52:44;17.10;99.90
1355;DHT22;671;48.972;9.276;2023-05-10T07:55:10;17.10;99.90
1355;DHT22;671;48.972;9.276;2023-05-10T07:57:37;17.20;99.90
1355;DHT22;671;48.972;9.276;2023-05-10T08:00:05;17.30;99.90
1355;DHT22;671;48.972;9.276;2023-05-10T08:02:33;17.40;99.90
1355;DHT22;671;48.972;9.276;2023-05-10T08:05:00;17.40;99.90
1355;DHT22;671;48.972;9.276;2023-05-10T08:07:26;17.60;99.90
1355;DHT22;671;48.972;9.276;2023-05-10T08:09:53;17.70;99.90
1355;DHT22;671;48.972;9.276;2023-05-10T08:12:19;17.80;99.90
1355;DHT22;671;48.972;9.276;2023-05-10T08:14:46;17.90;99.90
1355;DHT22;671;48.972;9.276;2023-05-10T08:17:12;18.10;99.90
1355;DHT22;671;48.972;9.276;2023-05-10T08:19:39;18.30;99.90
1355;DHT22;671;48.972;9.276;2023-05-10T08:22:05;18.30;99.90
1355;DHT22;671;48.972;9.276;2023-05-10T08:24:32;18.30;99.90
1355;DHT22;671;48.972;9.276;2023-05-10T08:27:00;18.30;99.90
1355;DHT22;671;48.972;9.276;2023-05-10T08:29:27;18.30;99.90
1355;DHT22;671;48.972;9.276;2023-05-10T08:31:54;18.30;99.90
1355;DHT22;671;48.972;9.276;2023-05-10T08:34:21;18.30;99.90
1355;DHT22;671;48.972;9.276;2023-05-10T08:36:47;18.20;99.90
1355;DHT22;671;48.972;9.276;2023-05-10T08:39:14;18.30;99.90
1355;DHT22;671;48.972;9.276;2023-05-10T08:41:44;18.40;99.90
1355;DHT22;671;48.972;9.276;2023-05-10T08:44:12;18.40;99.90
1355;DHT22;671;48.972;9.276;2023-05-10T08:46:41;18.30;99.90
1355;DHT22;671;48.972;9.276;2023-05-10T08:49:11;18.30;99.90
1355;DHT22;671;48.972;9.276;2023-05-10T08:51:40;18.40;99.90
1355;DHT22;671;48.972;9.276;2023-05-10T08:54:09;18.60;99.90
1355;DHT22;671;48.972;9.276;2023-05-10T08:56:36;18.70;99.90
1355;DHT22;671;48.972;9.276;2023-05-10T08:59:03;18.80;99.90
1355;DHT22;671;48.972;9.276;2023-05-10T09:01:31;18.80;99.90
1355;DHT22;671;48.972;9.276;2023-05-10T09:03:58;18.90;99.90
1355;DHT22;671;48.972;9.276;2023-05-10T09:06:25;18.90;99.90
1355;DHT22;671;48.972;9.276;2023-05-10T09:08:52;19.00;99.90
1355;DHT22;671;48.972;9.276;2023-05-10T09:11:20;19.10;99.90
1355;DHT22;671;48.972;9.276;2023-05-10T09:13:48;19.20;99.90
1355;DHT22;671;48.972;9.276;2023-05-10T09:16:17;19.00;99.90
1355;DHT22;671;48.972;9.276;2023-05-10T09:18:43;18.90;99.90
1355;DHT22;671;48.972;9.276;2023-05-10T09:21:09;18.80;99.90
1355;DHT22;671;48.972;9.276;2023-05-10T09:23:37;18.60;99.90
1355;DHT22;671;48.972;9.276;2023-05-10T09:26:06;18.50;99.90
1355;DHT22;671;48.972;9.276;2023-05-10T09:28:57;18.40;99.90
1355;DHT22;671;48.972;9.276;2023-05-10T09:31:24;18.40;99.90
1355;DHT22;671;48.972;9.276;2023-05-10T09:33:53;18.30;99.90
1355;DHT22;671;48.972;9.276;2023-05-10T09:36:20;18.10;99.90
1355;DHT22;671;48.972;9.276;2023-05-10T09:38:50;17.90;99.90
1355;DHT22;671;48.972;9.276;2023-05-10T09:41:23;17.80;99.90
1355;DHT22;671;48.972;9.276;2023-05-10T09:43:55;17.90;99.90
1355;DHT22;671;48.972;9.276;2023-05-10T09:46:22;18.00;99.90
1355;DHT22;671;48.972;9.276;2023-05-10T09:48:49;18.20;99.90
1355;DHT22;671;48.972;9.276;2023-05-10T09:51:19;18.30;99.90
1355;DHT22;671;48.972;9.276;2023-05-10T09:53:46;18.40;99.90
1355;DHT22;671;48.972;9.276;2023-05-10T09:56:13;18.50;99.90
1355;DHT22;671;48.972;9.276;2023-05-10T09:58:40;18.60;99.90
1355;DHT22;671;48.972;9.276;2023-05-10T10:01:11;18.80;99.90
1355;DHT22;671;48.972;9.276;2023-05-10T10:03:42;18.90;99.90
1355;DHT22;671;48.972;9.276;2023-05-10T10:06:08;19.00;99.90
1355;DHT22;671;48.972;9.276;2023-05-10T10:08:35;19.30;99.90
1355;DHT22;671;48.972;9.276;2023-05-10T10:11:01;19.50;99.90
1355;DHT22;671;48.972;9.276;2023-05-10T10:13:29;19.70;99.90
1355;DHT22;671;48.972;9.276;2023-05-10T10:15:55;20.00;99.90
1355;DHT22;671;48.972;9.276;2023-05-10T10:18:22;20.20;99.90
1355;DHT22;671;48.972;9.276;2023-05-10T10:20:54;20.40;99.90
1355;DHT22;671;48.972;9.276;2023-05-10T10:23:21;20.40;99.90
1355;DHT22;671;48.972;9.276;2023-05-10T10:25:48;20.40;99.90
1355;DHT22;671;48.972;9.276;2023-05-10T10:30:51;20.50;99.90
1355;DHT22;671;48.972;9.276;2023-05-10T10:33:36;20.70;99.90
1355;DHT22;671;48.972;9.276;2023-05-10T10:36:05;20.80;99.90
1355;DHT22;671;48.972;9.276;2023-05-10T10:49:27;19.70;99.90
1355;DHT22;671;48.972;9.276;2023-05-10T10:55:02;19.30;99.90
1355;DHT22;671;48.972;9.276;2023-05-10T10:57:46;19.40;99.90
1355;DHT22;671;48.972;9.276;2023-05-10T11:00:20;19.50;99.90
1355;DHT22;671;48.972;9.276;2023-05-10T11:03:07;19.60;99.90
1355;DHT22;671;48.972;9.276;2023-05-10T11:05:36;19.70;99.90
1355;DHT22;671;48.972;9.276;2023-05-10T11:13:34;18.90;99.90
1355;DHT22;671;48.972;9.276;2023-05-10T11:18:37;18.40;99.90
1355;DHT22;671;48.972;9.276;2023-05-10T11:21:04;18.20;99.90
1355;DHT22;671;48.972;9.276;2023-05-10T11:26:14;17.80;99.90
1355;DHT22;671;48.972;9.276;2023-05-10T11:28:46;17.80;99.90
1355;DHT22;671;48.972;9.276;2023-05-10T11:31:18;17.80;99.90
1355;DHT22;671;48.972;9.276;2023-05-10T11:36:16;18.10;99.90
1355;DHT22;671;48.972;9.276;2023-05-10T11:38:42;18.30;99.90
1355;DHT22;671;48.972;9.276;2023-05-10T11:41:10;18.30;99.90
1355;DHT22;671;48.972;9.276;2023-05-10T11:43:41;18.60;99.90
1355;DHT22;671;48.972;9.276;2023-05-10T11:46:10;18.70;99.90
1355;DHT22;671;48.972;9.276;2023-05-10T11:48:41;18.90;99.90
1355;DHT22;671;48.972;9.276;2023-05-10T11:51:08;19.20;99.90
1355;DHT22;671;48.972;9.276;2023-05-10T11:53:35;19.30;99.90
1355;DHT22;671;48.972;9.276;2023-05-10T11:56:11;19.50;99.90
1355;DHT22;671;48.972;9.276;2023-05-10T11:58:39;19.50;99.90
1355;DHT22;671;48.972;9.276;2023-05-10T12:01:07;19.50;99.90
1355;DHT22;671;48.972;9.276;2023-05-10T12:03:34;19.70;99.90
1355;DHT22;671;48.972;9.276;2023-05-10T12:06:01;19.80;99.90
1355;DHT22;671;48.972;9.276;2023-05-10T12:08:29;19.90;99.90
1355;DHT22;671;48.972;9.276;2023-05-10T12:11:07;20.10;99.90
1355;DHT22;671;48.972;9.276;2023-05-10T12:13:41;20.00;99.90
1355;DHT22;671;48.972;9.276;2023-05-10T12:18:51;20.40;99.90
1355;DHT22;671;48.972;9.276;2023-05-10T12:21:19;20.50;99.90
1355;DHT22;671;48.972;9.276;2023-05-10T12:23:48;20.50;99.90
1355;DHT22;671;48.972;9.276;2023-05-10T12:26:16;20.60;99.90
1355;DHT22;671;48.972;9.276;2023-05-10T12:28:43;20.80;99.90
1355;DHT22;671;48.972;9.276;2023-05-10T12:31:09;20.90;99.90
1355;DHT22;671;48.972;9.276;2023-05-10T12:33:38;21.00;99.90
1355;DHT22;671;48.972;9.276;2023-05-10T12:36:05;21.10;99.90
1355;DHT22;671;48.972;9.276;2023-05-10T12:38:40;21.10;99.90
1355;DHT22;671;48.972;9.276;2023-05-10T12:41:10;21.00;99.90
1355;DHT22;671;48.972;9.276;2023-05-10T12:43:37;20.90;99.90
1355;DHT22;671;48.972;9.276;2023-05-10T12:48:32;20.50;99.90
1355;DHT22;671;48.972;9.276;2023-05-10T12:51:01;20.40;99.90
1355;DHT22;671;48.972;9.276;2023-05-10T12:53:28;20.40;99.90
1355;DHT22;671;48.972;9.276;2023-05-10T12:55:54;20.40;99.90
1355;DHT22;671;48.972;9.276;2023-05-10T12:58:21;20.40;99.90
1355;DHT22;671;48.972;9.276;2023-05-10T13:00:47;20.40;99.90
1355;DHT22;671;48.972;9.276;2023-05-10T13:03:14;20.40;99.90
1355;DHT22;671;48.972;9.276;2023-05-10T13:05:41;20.40;99.90
1355;DHT22;671;48.972;9.276;2023-05-10T13:08:08;20.30;99.90
1355;DHT22;671;48.972;9.276;2023-05-10T13:10:35;20.30;99.90
1355;DHT22;671;48.972;9.276;2023-05-10T13:13:01;20.20;99.90
1355;DHT22;671;48.972;9.276;2023-05-10T13:15:28;20.20;99.90
1355;DHT22;671;48.972;9.276;2023-05-10T13:17:55;20.10;99.90
1355;DHT22;671;48.972;9.276;2023-05-10T13:20:21;20.20;99.90
1355;DHT22;671;48.972;9.276;2023-05-10T13:22:48;20.10;99.90
1355;DHT22;671;48.972;9.276;2023-05-10T13:25:14;20.30;99.90
1355;DHT22;671;48.972;9.276;2023-05-10T13:27:41;20.30;99.90
1355;DHT22;671;48.972;9.276;2023-05-10T13:30:08;20.30;99.90
1355;DHT22;671;48.972;9.276;2023-05-10T13:32:35;20.40;99.90
1355;DHT22;671;48.972;9.276;2023-05-10T13:35:02;20.30;99.90
1355;DHT22;671;48.972;9.276;2023-05-10T13:37:32;20.40;99.90
1355;DHT22;671;48.972;9.276;2023-05-10T13:40:01;20.40;99.90
1355;DHT22;671;48.972;9.276;2023-05-10T13:42:28;20.40;99.90
1355;DHT22;671;48.972;9.276;2023-05-10T13:44:54;20.40;99.90
1355;DHT22;671;48.972;9.276;2023-05-10T13:47:21;20.40;99.90
1355;DHT22;671;48.972;9.276;2023-05-10T13:49:48;20.50;99.90
1355;DHT22;671;48.972;9.276;2023-05-10T13:52:15;20.40;99.90
1355;DHT22;671;48.972;9.276;2023-05-10T13:54:41;20.50;99.90
1355;DHT22;671;48.972;9.276;2023-05-10T13:57:08;20.60;99.90
1355;DHT22;671;48.972;9.276;2023-05-10T13:59:34;20.50;99.90
1355;DHT22;671;48.972;9.276;2023-05-10T14:02:01;20.60;99.90
1355;DHT22;671;48.972;9.276;2023-05-10T14:04:30;20.60;99.90
1355;DHT22;671;48.972;9.276;2023-05-10T14:06:57;20.60;99.90
1355;DHT22;671;48.972;9.276;2023-05-10T14:09:24;20.70;99.90
1355;DHT22;671;48.972;9.276;2023-05-10T14:11:51;20.70;99.90
1355;DHT22;671;48.972;9.276;2023-05-10T14:14:17;20.80;99.90
1355;DHT22;671;48.972;9.276;2023-05-10T14:16:44;20.70;99.90
1355;DHT22;671;48.972;9.276;2023-05-10T14:19:11;20.70;99.90
1355;DHT22;671;48.972;9.276;2023-05-10T14:21:38;20.70;99.90
1355;DHT22;671;48.972;9.276;2023-05-10T14:24:05;20.70;99.90
1355;DHT22;671;48.972;9.276;2023-05-10T14:26:33;20.60;99.90
1355;DHT22;671;48.972;9.276;2023-05-10T14:29:00;20.60;99.90
1355;DHT22;671;48.972;9.276;2023-05-10T14:31:27;20.60;99.90
1355;DHT22;671;48.972;9.276;2023-05-10T14:33:53;20.70;99.90
1355;DHT22;671;48.972;9.276;2023-05-10T14:36:20;20.70;99.90
1355;DHT22;671;48.972;9.276;2023-05-10T14:38:46;20.60;99.90
1355;DHT22;671;48.972;9.276;2023-05-10T14:41:15;20.70;99.90
1355;DHT22;671;48.972;9.276;2023-05-10T14:43:43;20.50;99.90
1355;DHT22;671;48.972;9.276;2023-05-10T14:46:10;20.40;99.90
1355;DHT22;671;48.972;9.276;2023-05-10T14:48:36;20.40;99.90
1355;DHT22;671;48.972;9.276;2023-05-10T14:51:06;20.30;99.90
1355;DHT22;671;48.972;9.276;2023-05-10T14:53:33;20.10;99.90
1355;DHT22;671;48.972;9.276;2023-05-10T14:55:59;20.00;99.90
1355;DHT22;671;48.972;9.276;2023-05-10T14:58:27;19.90;99.90
1355;DHT22;671;48.972;9.276;2023-05-10T15:00:54;20.00;99.90
1355;DHT22;671;48.972;9.276;2023-05-10T15:03:20;19.90;99.90
1355;DHT22;671;48.972;9.276;2023-05-10T15:05:47;19.90;99.90
1355;DHT22;671;48.972;9.276;2023-05-10T15:08:14;20.00;99.90
1355;DHT22;671;48.972;9.276;2023-05-10T15:10:40;20.00;99.90
1355;DHT22;671;48.972;9.276;2023-05-10T15:13:07;20.00;99.90
1355;DHT22;671;48.972;9.276;2023-05-10T15:15:33;20.00;99.90
1355;DHT22;671;48.972;9.276;2023-05-10T15:18:00;20.10;99.90
1355;DHT22;671;48.972;9.276;2023-05-10T15:20:26;20.10;99.90
1355;DHT22;671;48.972;9.276;2023-05-10T15:22:53;20.00;99.90
1355;DHT22;671;48.972;9.276;2023-05-10T15:25:19;20.10;99.90
1355;DHT22;671;48.972;9.276;2023-05-10T15:27:46;20.10;99.90
1355;DHT22;671;48.972;9.276;2023-05-10T15:30:13;20.10;99.90
1355;DHT22;671;48.972;9.276;2023-05-10T15:32:39;20.10;99.90
1355;DHT22;671;48.972;9.276;2023-05-10T15:35:08;20.10;99.90
1355;DHT22;671;48.972;9.276;2023-05-10T15:37:36;20.20;99.90
1355;DHT22;671;48.972;9.276;2023-05-10T15:40:02;20.10;99.90
1355;DHT22;671;48.972;9.276;2023-05-10T15:42:30;20.10;99.90
1355;DHT22;671;48.972;9.276;2023-05-10T15:44:58;20.10;99.90
1355;DHT22;671;48.972;9.276;2023-05-10T15:47:25;20.10;99.90
1355;DHT22;671;48.972;9.276;2023-05-10T15:49:52;20.00;99.90
1355;DHT22;671;48.972;9.276;2023-05-10T15:52:20;20.00;99.90
1355;DHT22;671;48.972;9.276;2023-05-10T15:54:46;19.90;99.90
1355;DHT22;671;48.972;9.276;2023-05-10T15:57:13;19.90;99.90
1355;DHT22;671;48.972;9.276;2023-05-10T15:59:39;19.90;99.90
1355;DHT22;671;48.972;9.276;2023-05-10T16:02:07;19.90;99.90
1355;DHT22;671;48.972;9.276;2023-05-10T16:04:34;19.80;99.90
1355;DHT22;671;48.972;9.276;2023-05-10T16:07:00;19.80;99.90
1355;DHT22;671;48.972;9.276;2023-05-10T16:09:27;19.80;99.90
1355;DHT22;671;48.972;9.276;2023-05-10T16:11:53;19.80;99.90
1355;DHT22;671;48.972;9.276;2023-05-10T16:14:20;19.70;99.90
1355;DHT22;671;48.972;9.276;2023-05-10T16:16:48;19.60;99.90
1355;DHT22;671;48.972;9.276;2023-05-10T16:19:14;19.60;99.90
1355;DHT22;671;48.972;9.276;2023-05-10T16:21:41;19.50;99.90
1355;DHT22;671;48.972;9.276;2023-05-10T16:24:07;19.50;99.90
1355;DHT22;671;48.972;9.276;2023-05-10T16:26:34;19.60;99.90
1355;DHT22;671;48.972;9.276;2023-05-10T16:29:09;19.50;99.90
1355;DHT22;671;48.972;9.276;2023-05-10T16:31:35;19.50;99.90
1355;DHT22;671;48.972;9.276;2023-05-10T16:34:02;19.40;99.90
1355;DHT22;671;48.972;9.276;2023-05-10T16:36:28;19.30;99.90
1355;DHT22;671;48.972;9.276;2023-05-10T16:38:56;19.30;99.90
1355;DHT22;671;48.972;9.276;2023-05-10T16:41:22;19.30;99.90
1355;DHT22;671;48.972;9.276;2023-05-10T16:43:49;19.20;99.90
1355;DHT22;671;48.972;9.276;2023-05-10T16:46:15;19.20;99.90
1355;DHT22;671;48.972;9.276;2023-05-10T16:48:42;19.20;99.90
1355;DHT22;671;48.972;9.276;2023-05-10T16:51:08;19.10;99.90
1355;DHT22;671;48.972;9.276;2023-05-10T16:53:35;19.00;99.90
1355;DHT22;671;48.972;9.276;2023-05-10T16:56:02;19.00;99.90
1355;DHT22;671;48.972;9.276;2023-05-10T16:58:28;18.90;99.90
1355;DHT22;671;48.972;9.276;2023-05-10T17:00:55;18.90;99.90
1355;DHT22;671;48.972;9.276;2023-05-10T17:03:21;18.90;99.90
1355;DHT22;671;48.972;9.276;2023-05-10T17:05:48;18.90;99.90
1355;DHT22;671;48.972;9.276;2023-05-10T17:08:15;18.80;99.90